Harbour Grace, Canada
Current Conditions -  °F | °C
As of 9:00 PM on Saturday 25 Oct 2014 (Local Time) from CYYT Reporting Station
Drizzle Drizzle  
Wind Chill: 39°   Ceiling: 200
Heat Index: 46°   Visibility: 0.37mi
Dew Point: 46°   Wind: 17mph
Humidity: 100%   Direction: 40°NE
Pressure: 29.37"   Gusts: NA
Location:  47.68°N, 53.25°W
Report Text: CYYT 252300Z 04015KT 3/8SM R11/2400FT/N -DZ FG VV002 08/08 A2937 RMK FG8 SLP947
Loading
Personal Weather Stations






























Interactive Weather Map
Tropical Storm Tracking
New forecast layout! Learn more

10-Day Weather Forecast

Advertisements
Track Severe Weather on mobile